createdAt,value
2017-08-24T00:02:17.275Z,90.52
2017-08-24T00:04:47.222Z,90.43
2017-08-24T00:07:16.964Z,90.68
2017-08-24T00:09:46.693Z,90.57
2017-08-24T00:12:16.283Z,90.55
2017-08-24T00:14:46.027Z,90.45
2017-08-24T00:17:15.841Z,90.50
2017-08-24T00:19:45.650Z,90.33
2017-08-24T00:22:15.383Z,90.44
2017-08-24T00:24:45.240Z,90.11
2017-08-24T00:27:15.122Z,89.86
2017-08-24T00:29:44.873Z,90.07
2017-08-24T00:32:14.681Z,90.31
2017-08-24T00:34:44.421Z,90.40
2017-08-24T00:37:14.379Z,90.32
2017-08-24T00:39:44.165Z,90.25
2017-08-24T00:42:13.941Z,90.37
2017-08-24T00:44:43.682Z,90.47
2017-08-24T00:47:13.706Z,90.24
2017-08-24T00:49:43.625Z,90.52
2017-08-24T00:52:13.351Z,90.56
2017-08-24T00:54:43.169Z,90.74
2017-08-24T00:57:12.881Z,90.79
2017-08-24T00:59:42.629Z,90.64
2017-08-24T01:02:12.009Z,90.43
2017-08-24T01:04:41.924Z,90.46
2017-08-24T01:07:11.724Z,90.46
2017-08-24T01:09:41.480Z,90.28
2017-08-24T01:12:11.201Z,90.48
2017-08-24T01:14:40.970Z,90.14
2017-08-24T01:17:10.709Z,90.46
2017-08-24T01:19:40.465Z,90.37
2017-08-24T01:22:10.189Z,90.88
2017-08-24T01:24:39.978Z,91.02
2017-08-24T01:27:09.361Z,90.89
2017-08-24T01:29:39.088Z,90.72
2017-08-24T01:32:08.975Z,90.37
2017-08-24T01:34:38.698Z,90.54
2017-08-24T01:37:08.431Z,90.83
2017-08-24T01:39:38.157Z,90.98
2017-08-24T01:42:07.871Z,90.69
2017-08-24T01:44:37.596Z,90.87
2017-08-24T01:47:07.328Z,91.09
2017-08-24T01:49:37.221Z,90.88
2017-08-24T01:52:07.059Z,90.81
2017-08-24T01:54:36.781Z,90.96
2017-08-24T01:57:06.513Z,90.90
2017-08-24T01:59:36.266Z,91.08
2017-08-24T02:02:05.998Z,91.11
2017-08-24T02:04:35.721Z,91.49
2017-08-24T02:07:05.440Z,91.21
2017-08-24T02:09:35.200Z,91.30
2017-08-24T02:12:04.604Z,91.39
2017-08-24T02:14:34.344Z,91.43
2017-08-24T02:17:04.256Z,91.65
2017-08-24T02:19:34.016Z,91.51
2017-08-24T02:22:03.745Z,91.56
2017-08-24T02:24:33.468Z,91.38
2017-08-24T02:27:03.467Z,91.33
2017-08-24T02:29:33.593Z,91.41
2017-08-24T02:32:03.309Z,91.58
2017-08-24T02:34:33.134Z,91.69
2017-08-24T02:37:02.837Z,91.56
2017-08-24T02:39:32.572Z,91.49
2017-08-24T02:42:02.297Z,91.50
2017-08-24T02:44:32.034Z,91.58
2017-08-24T02:47:01.590Z,91.53
2017-08-24T02:49:31.413Z,91.59
2017-08-24T02:52:01.188Z,91.59
2017-08-24T02:54:31.076Z,91.80
2017-08-24T02:57:00.801Z,91.92
2017-08-24T03:03:15.303Z,91.63
2017-08-24T03:05:45.580Z,91.69
2017-08-24T03:08:16.283Z,91.65
2017-08-24T03:10:45.659Z,91.94
2017-08-24T03:13:15.677Z,91.95
2017-08-24T03:15:45.399Z,92.03
2017-08-24T03:18:16.140Z,92.02
2017-08-24T03:20:48.558Z,91.99
2017-08-24T03:23:18.980Z,92.05
2017-08-24T03:25:50.322Z,92.13
2017-08-24T03:28:22.058Z,92.13
2017-08-24T03:30:51.806Z,92.18
2017-08-24T03:33:23.385Z,92.30
2017-08-24T03:35:54.089Z,92.39
2017-08-24T03:38:23.825Z,92.68
2017-08-24T03:40:53.569Z,92.59
2017-08-24T03:43:25.839Z,92.70
2017-08-24T03:45:56.521Z,92.69
2017-08-24T03:48:27.204Z,92.70
2017-08-24T03:50:57.383Z,92.79
2017-08-24T03:53:27.116Z,92.74
2017-08-24T03:55:59.490Z,92.61
2017-08-24T03:58:31.209Z,92.63
2017-08-24T04:01:00.944Z,92.64
2017-08-24T04:03:31.640Z,92.73
2017-08-24T04:06:01.904Z,92.77
2017-08-24T04:08:31.628Z,92.80
2017-08-24T04:11:01.357Z,92.78
2017-08-24T04:13:31.088Z,92.85
2017-08-24T04:16:01.268Z,92.89
2017-08-24T04:18:31.011Z,92.69
2017-08-24T04:21:02.900Z,92.02
2017-08-24T04:23:32.636Z,91.94
2017-08-24T04:26:03.377Z,91.69
2017-08-24T04:28:34.789Z,91.60
2017-08-24T04:31:04.525Z,91.57
2017-08-24T04:33:36.237Z,91.58
2017-08-24T04:36:05.968Z,91.71
2017-08-24T04:38:37.348Z,91.55
2017-08-24T04:41:07.057Z,91.05
2017-08-24T04:43:36.789Z,91.19
2017-08-24T04:46:07.549Z,91.17
2017-08-24T04:48:38.881Z,90.94
2017-08-24T04:51:09.067Z,90.90
2017-08-24T04:53:39.728Z,90.64
2017-08-24T04:56:10.025Z,90.50
2017-08-24T04:58:41.729Z,90.37
2017-08-24T05:01:11.493Z,90.05
2017-08-24T05:03:41.234Z,89.91
2017-08-24T05:06:10.993Z,89.71
2017-08-24T05:08:40.746Z,89.59
2017-08-24T05:11:11.310Z,89.44
2017-08-24T05:13:41.054Z,89.33
2017-08-24T05:16:10.789Z,89.18
2017-08-24T05:18:40.975Z,88.83
2017-08-24T05:21:11.641Z,88.46
2017-08-24T05:23:41.827Z,88.17
2017-08-24T05:26:11.561Z,87.88
2017-08-24T05:28:41.844Z,87.57
2017-08-24T05:31:11.577Z,87.23
2017-08-24T05:33:44.192Z,86.69
2017-08-24T05:36:15.604Z,85.94
2017-08-24T05:38:45.360Z,85.25
2017-08-24T05:41:15.117Z,84.74
2017-08-24T05:43:47.692Z,84.33
2017-08-24T05:46:18.121Z,84.04
2017-08-24T05:48:47.864Z,84.38
2017-08-24T05:51:18.045Z,84.58
2017-08-24T05:53:47.796Z,84.75
2017-08-24T05:56:19.504Z,84.52
2017-08-24T05:58:50.893Z,84.00
2017-08-24T06:01:20.465Z,83.22
2017-08-24T06:03:50.204Z,82.09
2017-08-24T06:06:21.572Z,80.96
2017-08-24T06:08:53.200Z,80.34
2017-08-24T06:11:23.320Z,79.84
2017-08-24T06:13:55.358Z,79.77
2017-08-24T06:16:26.052Z,79.13
2017-08-24T06:18:57.103Z,78.51
2017-08-24T06:21:27.460Z,78.42
2017-08-24T06:23:58.461Z,77.80
2017-08-24T06:26:27.912Z,77.13
2017-08-24T06:28:59.218Z,76.12
2017-08-24T06:31:30.745Z,75.60
2017-08-24T06:34:00.825Z,74.54
2017-08-24T06:36:30.285Z,74.30
2017-08-24T06:39:01.434Z,74.90
2017-08-24T06:41:30.718Z,75.16
2017-08-24T06:44:01.012Z,73.73
2017-08-24T06:46:30.473Z,72.53
2017-08-24T06:49:02.767Z,70.96
2017-08-24T06:51:33.801Z,70.05
2017-08-24T06:54:03.695Z,69.05
2017-08-24T06:56:33.693Z,71.17
2017-08-24T06:59:05.741Z,69.93
2017-08-24T07:01:35.031Z,69.59
2017-08-24T07:04:06.308Z,70.51
2017-08-24T07:06:36.782Z,70.66
2017-08-24T07:09:07.153Z,70.66
2017-08-24T07:11:37.568Z,69.27
2017-08-24T07:14:08.651Z,70.51
2017-08-24T07:16:38.100Z,69.44
2017-08-24T07:19:09.308Z,68.83
2017-08-24T07:21:40.796Z,69.09
2017-08-24T07:24:10.251Z,66.67
2017-08-24T07:26:40.389Z,65.28
2017-08-24T07:29:13.017Z,65.12
2017-08-24T07:31:43.419Z,65.43
2017-08-24T07:34:14.523Z,65.84
2017-08-24T07:36:44.045Z,64.67
2017-08-24T07:39:15.520Z,63.68
2017-08-24T07:41:45.924Z,64.10
2017-08-24T07:44:15.364Z,64.17
2017-08-24T07:46:48.650Z,63.84
2017-08-24T07:49:19.164Z,62.81
2017-08-24T07:51:51.518Z,61.40
2017-08-24T07:54:22.528Z,61.74
2017-08-24T07:56:53.467Z,60.51
2017-08-24T07:59:22.919Z,59.93
2017-08-24T08:01:54.353Z,59.80
2017-08-24T08:04:23.800Z,59.68
2017-08-24T08:06:53.777Z,58.74
2017-08-24T08:09:23.253Z,58.84
2017-08-24T08:11:53.264Z,59.57
2017-08-24T08:14:23.741Z,57.83
2017-08-24T08:16:54.853Z,57.66
2017-08-24T08:19:24.968Z,56.59
2017-08-24T08:21:56.200Z,57.88
2017-08-24T08:24:27.728Z,56.45
2017-08-24T08:26:58.740Z,55.25
2017-08-24T08:29:28.211Z,53.50
2017-08-24T08:31:57.788Z,53.44
2017-08-24T08:34:27.237Z,53.64
2017-08-24T08:36:58.582Z,52.92
2017-08-24T08:39:28.033Z,53.35
2017-08-24T08:41:58.025Z,52.84
2017-08-24T08:44:27.957Z,52.83
2017-08-24T08:46:58.653Z,52.60
2017-08-24T08:49:30.585Z,52.12
2017-08-24T08:52:00.060Z,53.02
2017-08-24T08:54:29.512Z,52.66
2017-08-24T08:57:01.493Z,52.42
2017-08-24T08:59:32.610Z,50.93
2017-08-24T09:02:03.079Z,50.95
2017-08-24T09:04:34.283Z,50.51
2017-08-24T09:07:03.809Z,51.02
2017-08-24T09:09:33.805Z,51.42
2017-08-24T09:12:03.824Z,50.42
2017-08-24T09:14:35.107Z,48.03
2017-08-24T09:17:05.414Z,49.21
2017-08-24T09:19:36.305Z,49.36
2017-08-24T09:22:07.388Z,47.72
2017-08-24T09:24:36.856Z,47.79
2017-08-24T09:27:08.235Z,47.91
2017-08-24T09:29:37.685Z,46.27
2017-08-24T09:32:08.616Z,47.08
2017-08-24T09:34:41.714Z,45.98
2017-08-24T09:37:11.163Z,44.77
2017-08-24T09:39:43.877Z,45.21
2017-08-24T09:42:14.283Z,45.51
2017-08-24T09:44:45.212Z,43.59
2017-08-24T09:47:16.684Z,42.57
2017-08-24T09:49:48.105Z,42.84
2017-08-24T09:52:17.688Z,42.63
2017-08-24T09:54:47.143Z,43.47
2017-08-24T09:57:18.384Z,45.68
2017-08-24T09:59:47.833Z,43.06
2017-08-24T10:02:19.245Z,44.43
2017-08-24T10:04:49.708Z,42.99
2017-08-24T10:07:20.899Z,43.60
2017-08-24T10:09:50.700Z,42.41
2017-08-24T10:12:21.431Z,41.96
2017-08-24T10:14:50.676Z,42.92
2017-08-24T10:17:20.792Z,41.69
2017-08-24T10:19:50.049Z,42.39
2017-08-24T10:22:21.531Z,44.67
2017-08-24T10:24:50.978Z,42.89
2017-08-24T10:27:22.273Z,42.35
2017-08-24T10:29:55.382Z,42.86
2017-08-24T10:32:25.022Z,45.20
2017-08-24T10:34:55.985Z,42.59
2017-08-24T10:37:26.934Z,42.89
2017-08-24T10:39:58.886Z,42.94
2017-08-24T10:42:31.146Z,43.88
2017-08-24T10:45:00.609Z,41.99
2017-08-24T10:47:32.573Z,39.64
2017-08-24T10:50:03.759Z,39.59
2017-08-24T10:52:33.229Z,37.92
2017-08-24T10:55:04.362Z,37.98
2017-08-24T10:57:33.801Z,38.85
2017-08-24T11:00:03.797Z,39.01
2017-08-24T11:02:34.280Z,38.91
2017-08-24T11:05:04.842Z,38.08
2017-08-24T11:07:34.848Z,37.17
2017-08-24T11:10:04.901Z,36.27
2017-08-24T11:12:34.807Z,37.23
2017-08-24T11:15:06.400Z,35.89
2017-08-24T11:17:37.192Z,37.66
2017-08-24T11:20:09.365Z,36.16
2017-08-24T11:22:40.600Z,34.74
2017-08-24T11:25:10.111Z,33.86
2017-08-24T11:27:41.096Z,34.82
2017-08-24T11:30:14.893Z,34.68
2017-08-24T11:32:46.896Z,35.87
2017-08-24T11:35:22.218Z,34.26
2017-08-24T11:38:00.563Z,33.49
2017-08-24T11:40:33.763Z,34.62
2017-08-24T11:43:09.036Z,35.39
2017-08-24T11:45:53.812Z,33.83
2017-08-24T11:48:28.755Z,32.29
2017-08-24T11:51:06.058Z,32.63
2017-08-24T11:53:40.629Z,33.63
2017-08-24T11:56:12.875Z,32.46
2017-08-24T11:58:51.823Z,32.31
2017-08-24T12:01:25.222Z,32.92
2017-08-24T12:04:09.857Z,31.78
2017-08-24T12:06:47.700Z,32.50
2017-08-24T12:09:24.955Z,32.84
2017-08-24T12:12:06.292Z,32.46
2017-08-24T12:14:42.070Z,32.91
2017-08-24T12:17:24.136Z,33.81
2017-08-24T12:20:14.412Z,31.60
2017-08-24T12:22:46.084Z,32.25
2017-08-24T12:25:22.858Z,31.50
2017-08-24T12:27:58.062Z,28.01
2017-08-24T12:30:36.519Z,28.71
2017-08-24T12:33:11.507Z,27.70
2017-08-24T12:35:47.610Z,26.58
2017-08-24T12:38:27.481Z,25.26
2017-08-24T12:41:06.832Z,26.61
2017-08-24T12:43:45.138Z,25.45
2017-08-24T12:46:17.464Z,25.41
2017-08-24T12:48:50.172Z,22.62
2017-08-24T12:51:30.863Z,21.73
2017-08-24T12:54:01.253Z,22.81
2017-08-24T12:56:34.442Z,22.73
2017-08-24T12:59:04.870Z,23.61
2017-08-24T13:01:34.116Z,27.00
2017-08-24T13:04:04.028Z,26.72
2017-08-24T13:06:33.493Z,27.94
2017-08-24T13:09:04.021Z,25.60
2017-08-24T13:11:35.392Z,27.52
2017-08-24T13:14:06.428Z,28.74
2017-08-24T13:16:37.671Z,29.63
2017-08-24T13:19:09.235Z,28.69
2017-08-24T13:21:39.074Z,28.30
2017-08-24T13:24:10.126Z,28.83
2017-08-24T13:26:42.199Z,29.18
2017-08-24T13:29:20.966Z,28.62
2017-08-24T13:31:53.970Z,28.44
2017-08-24T13:34:25.968Z,29.58
2017-08-24T13:36:57.073Z,30.53
2017-08-24T13:39:27.189Z,30.17
2017-08-24T13:41:57.803Z,28.98
2017-08-24T13:44:28.768Z,29.43
2017-08-24T13:46:58.744Z,27.57
2017-08-24T13:49:29.176Z,26.54
2017-08-24T13:51:59.585Z,26.91
2017-08-24T13:54:29.041Z,26.64
2017-08-24T13:56:58.953Z,26.78
2017-08-24T13:59:29.882Z,27.23
2017-08-24T14:02:00.785Z,27.77
2017-08-24T14:04:31.688Z,26.75
2017-08-24T14:07:02.527Z,25.42
2017-08-24T14:09:33.835Z,25.47
2017-08-24T14:12:05.719Z,25.08
2017-08-24T14:14:36.247Z,25.27
2017-08-24T14:17:07.040Z,24.74
2017-08-24T14:19:36.946Z,24.87
2017-08-24T14:22:06.935Z,24.30
2017-08-24T14:24:37.765Z,24.11
2017-08-24T14:27:07.548Z,23.93
2017-08-24T14:29:39.495Z,23.03
2017-08-24T14:32:10.357Z,23.44
2017-08-24T14:34:40.060Z,22.39
2017-08-24T14:37:10.038Z,23.02
2017-08-24T14:39:40.025Z,22.24
2017-08-24T14:42:09.788Z,22.03
2017-08-24T14:44:41.085Z,20.30
2017-08-24T14:47:10.325Z,20.41
2017-08-24T14:49:40.216Z,20.21
2017-08-24T14:52:11.235Z,18.95
2017-08-24T14:54:40.517Z,19.06
2017-08-24T14:57:13.771Z,18.60
2017-08-24T14:59:43.037Z,18.32
2017-08-24T15:02:14.180Z,18.97
2017-08-24T15:04:44.360Z,19.07
2017-08-24T15:07:15.704Z,21.08
2017-08-24T15:09:46.563Z,21.18
2017-08-24T15:12:17.753Z,20.80
2017-08-24T15:14:47.026Z,19.76
2017-08-24T15:17:17.054Z,21.80
2017-08-24T15:19:47.062Z,22.46
2017-08-24T15:22:16.827Z,22.89
2017-08-24T15:24:48.749Z,22.00
2017-08-24T15:27:20.597Z,22.58
2017-08-24T15:29:52.551Z,22.09
2017-08-24T15:32:24.405Z,22.49
2017-08-24T15:34:55.256Z,23.06
2017-08-24T15:37:24.504Z,24.04
2017-08-24T15:39:53.753Z,23.94
2017-08-24T15:42:24.741Z,23.77
2017-08-24T15:44:55.019Z,24.32
2017-08-24T15:47:24.294Z,23.55
2017-08-24T15:49:55.329Z,24.74
2017-08-24T15:52:25.019Z,23.63
2017-08-24T15:54:54.803Z,25.04
2017-08-24T15:57:25.747Z,24.78
2017-08-24T15:59:54.982Z,24.71
2017-08-24T16:02:24.241Z,24.80
2017-08-24T16:04:57.353Z,24.29
2017-08-24T16:07:26.582Z,24.87
2017-08-24T16:09:55.826Z,24.86
2017-08-24T16:12:26.648Z,25.34
2017-08-24T16:14:58.493Z,26.74
2017-08-24T16:17:29.425Z,26.11
2017-08-24T16:20:00.385Z,25.16
2017-08-24T16:22:30.184Z,25.84
2017-08-24T16:24:59.421Z,25.48
2017-08-24T16:27:28.660Z,26.62
2017-08-24T16:29:58.869Z,26.54
2017-08-24T16:32:29.723Z,26.13
2017-08-24T16:34:59.505Z,26.82
2017-08-24T16:37:31.521Z,26.64
2017-08-24T16:40:02.435Z,26.35
2017-08-24T16:42:32.649Z,27.29
2017-08-24T16:45:03.365Z,28.04
2017-08-24T16:47:33.613Z,29.07
2017-08-24T16:50:04.541Z,29.75
2017-08-24T16:52:37.425Z,30.52
2017-08-24T16:55:06.705Z,31.49
2017-08-24T16:57:35.940Z,33.14
2017-08-24T17:00:05.239Z,34.45
2017-08-24T17:02:34.475Z,34.38
2017-08-24T17:05:07.649Z,34.99
2017-08-24T17:07:37.882Z,36.46
2017-08-24T17:10:10.094Z,38.65
2017-08-24T17:12:42.093Z,39.92
2017-08-24T17:15:11.356Z,41.60
2017-08-24T17:17:42.623Z,44.77
2017-08-24T17:20:12.452Z,46.47
2017-08-24T17:22:42.468Z,48.15
2017-08-24T17:25:13.874Z,50.47
2017-08-24T17:27:47.197Z,51.69
2017-08-24T17:30:17.059Z,53.92
2017-08-24T17:32:47.248Z,54.94
2017-08-24T17:35:18.558Z,56.98
2017-08-24T17:37:49.457Z,57.91
2017-08-24T17:40:20.304Z,59.11
2017-08-24T17:42:50.006Z,60.44
2017-08-24T17:45:20.082Z,61.14
2017-08-24T17:47:49.993Z,61.78
2017-08-24T17:50:20.825Z,63.30
2017-08-24T17:52:51.796Z,64.12
2017-08-24T17:55:23.053Z,63.87
2017-08-24T17:57:54.228Z,64.23
2017-08-24T18:00:25.142Z,65.49
2017-08-24T18:02:56.025Z,66.81
2017-08-24T18:05:25.913Z,67.66
2017-08-24T18:07:57.028Z,68.75
2017-08-24T18:10:28.801Z,69.20
2017-08-24T18:12:58.784Z,69.88
2017-08-24T18:15:29.757Z,70.33
2017-08-24T18:18:01.605Z,71.62
2017-08-24T18:20:33.528Z,72.37
2017-08-24T18:23:04.439Z,72.99
2017-08-24T18:25:35.441Z,73.87
2017-08-24T18:28:04.718Z,74.25
2017-08-24T18:30:37.898Z,74.82
2017-08-24T18:33:08.835Z,75.09
2017-08-24T18:35:38.330Z,75.81
2017-08-24T18:38:07.598Z,76.09
2017-08-24T18:40:38.178Z,76.53
2017-08-24T18:43:07.423Z,77.12
2017-08-24T18:45:38.456Z,77.51
2017-08-24T18:48:08.258Z,77.82
2017-08-24T18:50:38.210Z,77.71
2017-08-24T18:53:07.452Z,78.42
2017-08-24T18:55:37.717Z,78.60
2017-08-24T18:58:08.869Z,78.64
2017-08-24T19:00:38.463Z,79.02
2017-08-24T19:03:09.497Z,79.52
2017-08-24T19:05:40.558Z,80.23
2017-08-24T19:08:12.263Z,80.97
2017-08-24T19:10:42.432Z,81.00
2017-08-24T19:13:12.144Z,81.67
2017-08-24T19:15:42.105Z,81.85
2017-08-24T19:18:12.107Z,82.14
2017-08-24T19:20:43.028Z,82.70
2017-08-24T19:25:57.137Z,83.33
2017-08-24T19:28:26.936Z,83.41
2017-08-24T19:30:56.925Z,83.71
2017-08-24T19:33:30.170Z,83.75
2017-08-24T19:35:59.993Z,84.05
2017-08-24T19:38:29.269Z,84.44
2017-08-24T19:40:58.743Z,84.55
2017-08-24T19:43:30.753Z,84.83
2017-08-24T19:46:00.220Z,85.18
2017-08-24T19:48:31.644Z,85.37
2017-08-24T19:51:02.165Z,85.42
2017-08-24T19:53:32.144Z,85.71
2017-08-24T19:56:04.289Z,85.78
2017-08-24T19:58:35.136Z,85.90
2017-08-24T20:01:05.053Z,85.95
2017-08-24T20:03:34.507Z,86.06
2017-08-24T20:06:05.669Z,86.34
2017-08-24T20:08:36.172Z,86.71
2017-08-24T20:11:05.948Z,86.95
2017-08-24T20:13:38.064Z,87.23
2017-08-24T20:16:09.105Z,87.19
2017-08-24T20:18:41.493Z,87.37
2017-08-24T20:21:13.008Z,87.82
2017-08-24T20:23:42.997Z,87.74
2017-08-24T20:26:12.725Z,87.71
2017-08-24T20:28:42.836Z,87.88
2017-08-24T20:31:12.310Z,88.07
2017-08-24T20:33:42.343Z,88.15
2017-08-24T20:36:12.822Z,88.07
2017-08-24T20:38:43.912Z,88.20
2017-08-24T20:41:15.058Z,88.22
2017-08-24T20:43:46.049Z,88.44
2017-08-24T20:46:16.592Z,88.39
2017-08-24T20:48:49.709Z,88.47
2017-08-24T20:51:19.197Z,89.10
2017-08-24T20:53:49.640Z,89.00
2017-08-24T20:56:20.652Z,88.94
2017-08-24T20:58:52.109Z,88.53
2017-08-24T21:01:23.492Z,88.53
2017-08-24T21:03:53.409Z,88.61
2017-08-24T21:06:24.737Z,88.77
2017-08-24T21:08:54.215Z,88.76
2017-08-24T21:11:25.731Z,88.79
2017-08-24T21:13:55.218Z,88.85
2017-08-24T21:16:25.703Z,89.12
2017-08-24T21:18:57.796Z,89.38
2017-08-24T21:21:27.251Z,89.77
2017-08-24T21:23:59.700Z,90.28
2017-08-24T21:26:29.177Z,90.26
2017-08-24T21:29:01.387Z,90.28
2017-08-24T21:31:30.893Z,90.27
2017-08-24T21:34:00.897Z,90.23
2017-08-24T21:36:33.878Z,90.34
2017-08-24T21:39:03.145Z,90.24
2017-08-24T21:41:32.612Z,90.01
2017-08-24T21:44:03.003Z,89.75
2017-08-24T21:46:34.289Z,88.19
2017-08-24T21:49:03.748Z,86.64
2017-08-24T21:51:35.184Z,85.89
2017-08-24T21:54:04.641Z,84.06
2017-08-24T21:56:35.752Z,82.90
2017-08-24T21:59:05.046Z,79.52
2017-08-24T22:01:36.665Z,77.57
2017-08-24T22:04:06.129Z,76.68
2017-08-24T22:06:36.547Z,72.83
2017-08-24T22:09:06.513Z,72.62
2017-08-24T22:11:37.421Z,71.24
2017-08-24T22:14:08.832Z,69.31
2017-08-24T22:16:39.230Z,67.52
2017-08-24T22:19:09.652Z,66.62
2017-08-24T22:21:41.960Z,66.51
2017-08-24T22:24:13.269Z,66.09
2017-08-24T22:26:43.173Z,65.48
2017-08-24T22:29:16.094Z,64.41
2017-08-24T22:31:46.487Z,63.52
2017-08-24T22:34:17.940Z,62.86
2017-08-24T22:36:47.396Z,62.75
2017-08-24T22:39:18.872Z,61.70
2017-08-24T22:41:48.332Z,61.16
2017-08-24T22:44:18.523Z,61.31
2017-08-24T22:46:49.531Z,61.39
2017-08-24T22:49:20.840Z,60.84
2017-08-24T22:51:51.334Z,60.60
2017-08-24T22:54:28.964Z,60.19
2017-08-24T22:57:05.737Z,60.35
2017-08-24T22:59:41.709Z,59.49
2017-08-24T23:02:17.233Z,59.26
2017-08-24T23:04:47.664Z,58.91
2017-08-24T23:07:18.624Z,58.62
2017-08-24T23:09:48.096Z,58.88
2017-08-24T23:12:19.420Z,59.01
2017-08-24T23:14:49.531Z,58.92
2017-08-24T23:17:19.417Z,59.23
2017-08-24T23:19:48.684Z,59.23
2017-08-24T23:22:20.716Z,59.70
2017-08-24T23:24:51.432Z,59.56
2017-08-24T23:27:22.707Z,59.58
2017-08-24T23:29:52.194Z,59.79
2017-08-24T23:32:23.345Z,60.31
2017-08-24T23:34:53.247Z,60.34
2017-08-24T23:37:22.681Z,61.07
2017-08-24T23:39:54.772Z,61.16
2017-08-24T23:42:26.164Z,61.20
2017-08-24T23:44:55.613Z,61.42
2017-08-24T23:47:26.716Z,61.71
2017-08-24T23:49:57.604Z,62.40
2017-08-24T23:52:27.597Z,62.60
2017-08-24T23:54:57.061Z,63.07
2017-08-24T23:57:26.312Z,63.57
2017-08-24T23:59:56.257Z,64.21
